Time;durP1;ratioP1;P1;durP2;ratioP2;P2;SDS_P1;SDS_P2;PMS_P1;PMS_P2;Temp;Humidity;BMP_temperature;BMP_pressure;BME280_temperature;BME280_humidity;BME280_pressure;Samples;Min_cycle;Max_cycle;Signal;HPM_P1;HPM_P2
2021/01/17 00:00:55;;;;;;;33.92;17.95;;;;;;;-1.49;100.00;100942.81;5223231;28;20045;-78
2021/01/17 00:03:25;;;;;;;35.50;18.25;;;;;;;-1.64;100.00;100943.41;5222837;28;20032;-79
2021/01/17 00:05:56;;;;;;;37.38;19.35;;;;;;;-1.78;100.00;100943.97;5226029;28;20025;-80
2021/01/17 00:08:26;;;;;;;35.45;17.67;;;;;;;-1.95;100.00;100940.22;5227482;28;20032;-79
2021/01/17 00:10:56;;;;;;;38.03;19.08;;;;;;;-1.82;100.00;100937.03;5225503;28;20435;-79
2021/01/17 00:13:27;;;;;;;35.05;18.05;;;;;;;-1.80;100.00;100935.38;5224790;28;20025;-79
2021/01/17 00:15:57;;;;;;;31.20;16.95;;;;;;;-1.78;100.00;100934.56;5225275;28;20029;-79
2021/01/17 00:18:28;;;;;;;34.53;18.05;;;;;;;-1.95;100.00;100929.97;5223346;28;20666;-79
2021/01/17 00:20:58;;;;;;;34.40;17.98;;;;;;;-1.94;100.00;100924.03;5225205;28;20032;-79
2021/01/17 00:23:28;;;;;;;34.72;17.88;;;;;;;-1.99;100.00;100928.16;5224571;28;20028;-79
2021/01/17 00:25:58;;;;;;;34.42;18.58;;;;;;;-1.97;100.00;100925.66;5223949;28;20024;-79
2021/01/17 00:28:29;;;;;;;33.05;17.02;;;;;;;-2.15;100.00;100926.13;5224944;28;20025;-79
2021/01/17 00:30:59;;;;;;;37.00;18.35;;;;;;;-2.04;100.00;100916.97;5224263;28;20025;-79
2021/01/17 00:33:29;;;;;;;33.22;17.77;;;;;;;-2.01;100.00;100919.59;5206593;28;20029;-79
2021/01/17 00:35:59;;;;;;;32.00;17.17;;;;;;;-2.00;100.00;100923.03;5224179;28;20036;-79
2021/01/17 00:38:30;;;;;;;34.28;18.65;;;;;;;-2.04;100.00;100922.09;5224284;28;20116;-79
2021/01/17 00:41:01;;;;;;;34.95;17.38;;;;;;;-1.95;100.00;100921.41;5220076;28;20032;-79
2021/01/17 00:43:31;;;;;;;30.95;16.65;;;;;;;-2.01;100.00;100914.47;5224421;28;20051;-79
2021/01/17 00:46:04;;;;;;;32.55;17.23;;;;;;;-2.02;100.00;100917.88;5225060;28;20025;-79
2021/01/17 00:48:34;;;;;;;31.30;17.30;;;;;;;-1.96;100.00;100912.84;5225050;28;20096;-79
2021/01/17 00:51:04;;;;;;;34.35;18.15;;;;;;;-2.09;100.00;100912.59;5224347;28;20067;-79
2021/01/17 00:53:35;;;;;;;29.83;16.63;;;;;;;-2.01;100.00;100919.59;5223316;28;20058;-79
2021/01/17 00:56:05;;;;;;;30.02;16.45;;;;;;;-2.00;100.00;100915.34;5225979;28;20095;-79
2021/01/17 00:58:35;;;;;;;29.08;16.60;;;;;;;-1.99;100.00;100917.94;5226039;28;20061;-79
2021/01/17 01:01:06;;;;;;;28.90;16.05;;;;;;;-2.07;100.00;100918.59;5206521;28;20032;-79
2021/01/17 01:03:36;;;;;;;30.17;16.55;;;;;;;-2.33;100.00;100915.50;5223648;28;20436;-79
2021/01/17 01:06:06;;;;;;;29.05;15.50;;;;;;;-2.31;100.00;100921.53;5224763;28;20061;-79
2021/01/17 01:08:36;;;;;;;29.48;15.88;;;;;;;-2.31;100.00;100924.06;5217718;28;20025;-79
2021/01/17 01:11:07;;;;;;;29.05;15.57;;;;;;;-2.35;100.00;100917.19;5231657;28;20421;-79
2021/01/17 01:13:37;;;;;;;32.17;16.17;;;;;;;-2.37;100.00;100918.00;5226781;28;20035;-79
2021/01/17 01:16:11;;;;;;;31.13;16.30;;;;;;;-2.26;100.00;100909.72;5211059;28;20034;-79
2021/01/17 01:18:42;;;;;;;29.85;15.70;;;;;;;-2.30;100.00;100913.00;5224120;28;20530;-79
2021/01/17 01:21:13;;;;;;;32.10;16.45;;;;;;;-2.26;100.00;100902.03;5222399;28;20031;-79
2021/01/17 01:23:43;;;;;;;31.35;16.42;;;;;;;-2.25;100.00;100908.88;5224023;28;20021;-79
2021/01/17 01:26:13;;;;;;;27.30;15.27;;;;;;;-2.15;100.00;100903.09;5223892;28;20396;-79
2021/01/17 01:28:44;;;;;;;28.98;15.98;;;;;;;-2.14;100.00;100897.13;5224476;28;20372;-79
2021/01/17 01:31:23;;;;;;;32.08;15.60;;;;;;;-2.13;100.00;100893.75;5223676;28;20021;-79
2021/01/17 01:33:53;;;;;;;31.95;16.58;;;;;;;-2.15;100.00;100899.69;5223887;28;20036;-79
2021/01/17 01:36:26;;;;;;;29.20;15.55;;;;;;;-2.11;100.00;100892.09;5223478;28;20032;-79
2021/01/17 01:38:57;;;;;;;31.23;16.77;;;;;;;-2.12;100.00;100887.81;5223273;28;20074;-79
2021/01/17 01:41:29;;;;;;;29.48;15.98;;;;;;;-2.14;100.00;100892.03;5224100;28;20025;-79
2021/01/17 01:44:00;;;;;;;31.58;16.42;;;;;;;-2.00;100.00;100889.75;5222493;28;20025;-79
2021/01/17 01:46:31;;;;;;;32.20;16.20;;;;;;;-1.97;100.00;100895.78;5223706;28;20028;-79
2021/01/17 01:49:02;;;;;;;30.80;16.33;;;;;;;-2.03;100.00;100895.66;5222584;28;20024;-79
2021/01/17 01:51:33;;;;;;;28.35;15.68;;;;;;;-2.14;100.00;100892.03;5223631;28;20031;-79
2021/01/17 01:54:05;;;;;;;29.85;16.42;;;;;;;-2.18;100.00;100895.34;5223230;28;20085;-79
2021/01/17 01:56:36;;;;;;;28.02;15.73;;;;;;;-2.17;100.00;100886.84;5223478;28;20175;-79
2021/01/17 01:59:06;;;;;;;29.95;15.98;;;;;;;-2.09;100.00;100879.31;5223181;28;20119;-79
2021/01/17 02:01:40;;;;;;;29.00;16.23;;;;;;;-2.07;100.00;100878.53;5223420;28;20028;-79
2021/01/17 02:04:11;;;;;;;30.25;16.52;;;;;;;-2.04;100.00;100878.59;5223664;28;20075;-77
2021/01/17 02:06:58;;;;;;;30.58;15.93;;;;;;;-2.02;100.00;100876.91;5223575;28;20040;-79
2021/01/17 02:09:29;;;;;;;31.48;16.67;;;;;;;-2.00;100.00;100870.13;5219742;28;20021;-79
2021/01/17 02:12:39;;;;;;;30.75;16.45;;;;;;;-1.82;100.00;100861.09;5222619;28;20074;-78
2021/01/17 02:15:24;;;;;;;30.50;15.80;;;;;;;-1.86;100.00;100868.69;5224014;28;20017;-79
2021/01/17 02:17:55;;;;;;;29.75;15.25;;;;;;;-1.68;100.00;100863.91;5224394;28;20116;-79
2021/01/17 02:20:27;;;;;;;29.50;15.77;;;;;;;-1.85;100.00;100864.44;5222891;28;20068;-79
2021/01/17 02:23:00;;;;;;;28.80;15.90;;;;;;;-1.80;100.00;100863.66;5223038;28;20028;-79
2021/01/17 02:25:39;;;;;;;31.13;16.45;;;;;;;-1.89;100.00;100853.28;5223138;28;20025;-80
2021/01/17 02:28:15;;;;;;;31.88;15.90;;;;;;;-1.88;100.00;100854.13;5223199;28;20703;-78
2021/01/17 02:30:49;;;;;;;28.63;15.73;;;;;;;-1.86;100.00;100853.31;5223330;28;20028;-79
2021/01/17 02:33:26;;;;;;;31.80;16.63;;;;;;;-1.80;100.00;100848.31;5222539;28;20098;-78
2021/01/17 02:36:24;;;;;;;31.60;16.70;;;;;;;-1.93;100.00;100851.50;5222613;28;20013;-79
2021/01/17 02:39:12;;;;;;;33.67;16.88;;;;;;;-2.01;100.00;100850.47;5223644;28;20025;-79
2021/01/17 02:42:02;;;;;;;35.17;16.98;;;;;;;-2.04;100.00;100842.75;5225308;28;20364;-78
2021/01/17 02:44:34;;;;;;;31.17;16.88;;;;;;;-1.99;100.00;100845.41;5220270;28;20052;-78
2021/01/17 02:47:04;;;;;;;32.25;16.80;;;;;;;-1.97;100.00;100833.47;5224889;28;20021;-78
2021/01/17 02:49:34;;;;;;;30.83;16.58;;;;;;;-1.98;100.00;100837.72;5222672;28;20029;-79
2021/01/17 02:52:07;;;;;;;34.47;16.85;;;;;;;-1.89;100.00;100847.28;5222201;28;20029;-78
2021/01/17 02:54:41;;;;;;;28.98;16.35;;;;;;;-1.85;100.00;100842.25;5222056;28;20403;-79
2021/01/17 02:57:13;;;;;;;29.05;16.70;;;;;;;-1.90;100.00;100840.44;5221962;28;20415;-79
2021/01/17 02:59:53;;;;;;;29.58;16.30;;;;;;;-1.85;100.00;100832.00;5222081;28;20044;-79
2021/01/17 03:02:34;;;;;;;29.98;15.80;;;;;;;-1.89;100.00;100840.47;5222294;28;20028;-79
2021/01/17 03:05:06;;;;;;;27.50;15.60;;;;;;;-1.88;100.00;100834.50;5221971;28;20097;-79
2021/01/17 03:07:37;;;;;;;34.05;16.73;;;;;;;-1.87;100.00;100831.13;5221593;28;20025;-79
2021/01/17 03:10:09;;;;;;;29.92;16.50;;;;;;;-1.86;100.00;100822.59;5222017;28;20024;-79
2021/01/17 03:12:39;;;;;;;31.27;16.95;;;;;;;-1.78;100.00;100839.81;5222267;28;20029;-79
2021/01/17 03:15:11;;;;;;;30.50;16.77;;;;;;;-1.88;100.00;100839.63;5221670;28;20036;-79
2021/01/17 03:17:42;;;;;;;34.05;16.08;;;;;;;-1.76;100.00;100834.75;5221885;28;20025;-79
2021/01/17 03:20:12;;;;;;;30.77;17.20;;;;;;;-1.68;100.00;100835.72;5221692;28;20055;-79
2021/01/17 03:22:43;;;;;;;31.85;16.70;;;;;;;-1.81;100.00;100832.09;5222254;28;20032;-79
2021/01/17 03:25:13;;;;;;;31.35;17.00;;;;;;;-1.82;100.00;100834.59;5222097;28;20021;-79
2021/01/17 03:27:43;;;;;;;33.03;16.52;;;;;;;-1.97;100.00;100830.94;5221845;28;20023;-79
2021/01/17 03:30:14;;;;;;;34.67;18.02;;;;;;;-1.90;100.00;100836.19;5221906;28;20048;-79
2021/01/17 03:32:44;;;;;;;32.50;16.45;;;;;;;-1.75;100.00;100839.88;5222078;28;20025;-79
2021/01/17 03:35:14;;;;;;;30.88;16.17;;;;;;;-1.65;100.00;100831.53;5204488;28;20024;-79
2021/01/17 03:37:45;;;;;;;31.00;16.85;;;;;;;-1.62;100.00;100833.25;5221696;28;20163;-79
2021/01/17 03:40:15;;;;;;;30.48;16.65;;;;;;;-1.59;100.00;100829.06;5224277;28;20037;-79
2021/01/17 03:42:45;;;;;;;30.58;16.77;;;;;;;-1.55;100.00;100824.84;5225380;28;20434;-79
2021/01/17 03:45:15;;;;;;;29.80;16.30;;;;;;;-1.52;100.00;100823.22;5225866;28;20163;-79
2021/01/17 03:47:46;;;;;;;32.22;17.33;;;;;;;-1.61;100.00;100824.75;5226299;28;20017;-79
2021/01/17 03:50:16;;;;;;;31.70;17.33;;;;;;;-1.52;100.00;100819.78;5224829;28;20487;-79
2021/01/17 03:52:46;;;;;;;30.63;16.65;;;;;;;-1.56;100.00;100818.84;5207900;28;20439;-79
2021/01/17 03:55:16;;;;;;;32.92;17.35;;;;;;;-1.37;100.00;100820.88;5224364;28;20036;-79
2021/01/17 03:57:47;;;;;;;30.67;16.85;;;;;;;-1.35;100.00;100828.59;5225408;28;20087;-79
2021/01/17 04:00:18;;;;;;;30.55;17.02;;;;;;;-1.54;100.00;100826.56;5224899;28;20025;-79
2021/01/17 04:02:48;;;;;;;32.47;16.90;;;;;;;-1.59;100.00;100817.97;5225265;28;20029;-79
2021/01/17 04:05:18;;;;;;;31.20;16.75;;;;;;;-1.64;100.00;100825.56;5225524;28;20047;-79
2021/01/17 04:07:48;;;;;;;29.00;16.75;;;;;;;-1.57;100.00;100821.41;5224900;28;20024;-79
2021/01/17 04:10:19;;;;;;;32.92;17.05;;;;;;;-1.65;100.00;100822.97;5225570;28;20685;-79
2021/01/17 04:12:49;;;;;;;32.13;16.50;;;;;;;-1.88;100.00;100828.50;5225503;28;20044;-79
2021/01/17 04:15:19;;;;;;;33.10;17.13;;;;;;;-1.77;100.00;100822.78;5225370;28;20087;-79
2021/01/17 04:17:49;;;;;;;33.88;17.08;;;;;;;-1.65;100.00;100822.97;5225345;28;20033;-79
2021/01/17 04:20:20;;;;;;;32.25;17.75;;;;;;;-1.70;99.59;100817.78;5224695;28;20482;-79
2021/01/17 04:22:50;;;;;;;34.58;18.45;;;;;;;-1.65;100.00;100822.97;5225206;28;20025;-79
2021/01/17 04:25:20;;;;;;;38.30;19.73;;;;;;;-1.72;100.00;100818.59;5225279;28;20028;-79
2021/01/17 04:27:50;;;;;;;34.10;18.80;;;;;;;-1.68;100.00;100820.34;5225363;28;20029;-79
2021/01/17 04:30:22;;;;;;;39.05;19.13;;;;;;;-1.91;100.00;100828.47;5225029;28;20056;-79
2021/01/17 04:32:53;;;;;;;36.92;19.20;;;;;;;-1.92;100.00;100831.84;5225071;28;20031;-79
2021/01/17 04:35:24;;;;;;;34.30;19.77;;;;;;;-2.02;100.00;100825.72;5224875;28;20025;-79
2021/01/17 04:37:58;;;;;;;36.13;20.25;;;;;;;-2.10;100.00;100826.41;5224717;28;20036;-79
2021/01/17 04:40:29;;;;;;;36.85;20.30;;;;;;;-2.32;100.00;100831.97;5223796;28;20111;-79
2021/01/17 04:43:11;;;;;;;43.45;21.15;;;;;;;-2.46;100.00;100831.69;5224391;28;20033;-79
2021/01/17 04:45:42;;;;;;;38.97;20.52;;;;;;;-2.36;100.00;100825.06;5225005;28;20499;-79
2021/01/17 04:48:15;;;;;;;37.83;20.02;;;;;;;-2.37;100.00;100825.91;5224843;28;20047;-79
2021/01/17 04:50:46;;;;;;;35.88;20.30;;;;;;;-2.27;100.00;100825.22;5223746;28;20051;-79
2021/01/17 04:53:19;;;;;;;36.10;19.65;;;;;;;-1.95;100.00;100826.69;5224152;28;20040;-79
2021/01/17 04:55:50;;;;;;;33.72;18.60;;;;;;;-2.10;100.00;100819.59;5224799;28;20471;-79
2021/01/17 04:58:32;;;;;;;34.42;18.73;;;;;;;-2.19;100.00;100821.97;5224350;28;20116;-79
2021/01/17 05:01:03;;;;;;;35.30;19.08;;;;;;;-2.26;100.00;100834.63;5224797;28;20604;-79
2021/01/17 05:03:52;;;;;;;37.13;19.88;;;;;;;-2.41;100.00;100827.53;5224005;28;20048;-79
2021/01/17 05:06:27;;;;;;;37.92;20.00;;;;;;;-2.57;100.00;100827.16;5224644;28;20032;-79
2021/01/17 05:09:05;;;;;;;37.03;19.75;;;;;;;-2.37;100.00;100831.84;5223817;28;20766;-79
2021/01/17 05:11:40;;;;;;;33.90;18.35;;;;;;;-2.18;100.00;100818.59;5221663;28;20036;-79
2021/01/17 05:14:14;;;;;;;35.88;19.67;;;;;;;-2.37;100.00;100824.19;5223547;28;20029;-79
2021/01/17 05:16:46;;;;;;;35.25;19.23;;;;;;;-2.39;100.00;100828.41;5224339;28;20059;-79
2021/01/17 05:19:19;;;;;;;34.42;18.25;;;;;;;-2.36;100.00;100827.63;5223815;28;20094;-79
2021/01/17 05:21:51;;;;;;;34.15;18.13;;;;;;;-2.22;100.00;100827.03;5224079;28;20020;-79
2021/01/17 05:24:21;;;;;;;33.80;18.23;;;;;;;-2.33;100.00;100828.53;5224231;28;20415;-79
2021/01/17 05:26:55;;;;;;;37.85;19.10;;;;;;;-2.38;100.00;100829.25;5224290;28;20017;-79
2021/01/17 05:29:27;;;;;;;34.88;17.70;;;;;;;-2.36;100.00;100828.47;5224174;28;20148;-79
2021/01/17 05:32:05;;;;;;;34.88;18.55;;;;;;;-2.49;100.00;100826.50;5223722;28;20055;-79
2021/01/17 05:34:35;;;;;;;34.13;18.73;;;;;;;-2.53;100.00;100834.94;5224100;28;20093;-79
2021/01/17 05:37:13;;;;;;;33.58;18.77;;;;;;;-2.47;100.00;100835.06;5216841;28;20108;-79
2021/01/17 05:40:02;;;;;;;34.03;17.92;;;;;;;-2.52;100.00;100831.53;5218828;28;20032;-79
2021/01/17 05:42:38;;;;;;;32.80;18.33;;;;;;;-2.57;100.00;100822.94;5224225;28;20048;-78
2021/01/17 05:45:23;;;;;;;33.85;17.88;;;;;;;-2.51;100.00;100833.28;5223864;28;20063;-79
2021/01/17 05:47:57;;;;;;;34.22;17.50;;;;;;;-2.35;100.00;100839.56;5223780;28;20017;-78
2021/01/17 05:50:30;;;;;;;33.95;18.10;;;;;;;-2.27;100.00;100838.91;5214041;28;20036;-78
2021/01/17 05:53:05;;;;;;;31.38;16.73;;;;;;;-2.28;100.00;100842.28;5223669;28;20055;-77
2021/01/17 05:55:45;;;;;;;33.92;16.77;;;;;;;-2.25;100.00;100836.34;5223777;28;20041;-79
2021/01/17 05:58:23;;;;;;;31.98;17.40;;;;;;;-2.45;100.00;100829.97;5223730;28;20774;-77
2021/01/17 06:01:00;;;;;;;31.05;16.67;;;;;;;-2.35;100.00;100840.41;5222250;28;20045;-78
2021/01/17 06:03:33;;;;;;;30.55;15.88;;;;;;;-2.22;100.00;100837.28;5233716;28;20017;-78
2021/01/17 06:06:05;;;;;;;29.33;15.80;;;;;;;-1.97;100.00;100839.44;5207252;28;20111;-79
2021/01/17 06:08:37;;;;;;;31.73;16.17;;;;;;;-2.16;99.87;100842.50;5223198;28;20021;-77
2021/01/17 06:11:12;;;;;;;30.38;15.68;;;;;;;-2.16;100.00;100828.84;5223456;28;20029;-79
2021/01/17 06:13:42;;;;;;;29.52;15.50;;;;;;;-2.00;100.00;100841.13;5223855;28;20764;-79
2021/01/17 06:16:23;;;;;;;30.40;16.88;;;;;;;-2.01;100.00;100842.78;5225306;28;20037;-79
2021/01/17 06:18:57;;;;;;;32.67;16.73;;;;;;;-1.91;100.00;100844.69;5222851;28;20028;-79
2021/01/17 06:21:30;;;;;;;31.98;16.88;;;;;;;-1.92;99.86;100842.97;5223204;28;20100;-79
2021/01/17 06:24:03;;;;;;;30.52;17.27;;;;;;;-2.01;100.00;100847.06;5222760;28;20033;-79
2021/01/17 06:26:35;;;;;;;31.23;17.25;;;;;;;-2.08;100.00;100851.22;5223570;28;20031;-79
2021/01/17 06:29:10;;;;;;;30.60;16.65;;;;;;;-2.21;100.00;100845.81;5222945;28;20025;-79
2021/01/17 06:31:41;;;;;;;32.25;17.08;;;;;;;-2.13;100.00;100851.94;5223638;28;20112;-79
2021/01/17 06:34:12;;;;;;;35.50;17.70;;;;;;;-2.03;100.00;100849.59;5223941;28;20116;-79
2021/01/17 06:36:46;;;;;;;32.90;17.42;;;;;;;-2.19;100.00;100855.25;5205822;28;20027;-79
2021/01/17 06:39:21;;;;;;;32.70;17.90;;;;;;;-2.03;100.00;100861.53;5218059;28;20025;-79
2021/01/17 06:42:00;;;;;;;32.80;16.60;;;;;;;-2.15;100.00;100853.63;5222757;28;20475;-79
2021/01/17 06:44:32;;;;;;;35.03;17.92;;;;;;;-2.13;100.00;100855.34;5223350;28;20127;-79
2021/01/17 06:47:02;;;;;;;32.63;17.17;;;;;;;-2.13;100.00;100857.91;5222858;28;20032;-79
2021/01/17 06:49:35;;;;;;;31.30;16.35;;;;;;;-2.14;100.00;100861.31;5212723;28;20025;-79
2021/01/17 06:52:07;;;;;;;33.92;17.20;;;;;;;-2.09;100.00;100854.59;5223022;28;20427;-78
2021/01/17 06:54:43;;;;;;;30.70;17.02;;;;;;;-1.99;100.00;100851.38;5222702;28;20051;-79
2021/01/17 06:57:14;;;;;;;28.50;16.23;;;;;;;-2.14;100.00;100861.31;5222611;28;20420;-80
2021/01/17 06:59:51;;;;;;;33.08;16.98;;;;;;;-1.96;100.00;100856.53;5204906;28;20029;-78
2021/01/17 07:02:28;;;;;;;30.50;16.83;;;;;;;-2.07;100.00;100863.16;5223478;28;20024;-79
2021/01/17 07:05:32;;;;;;;30.27;16.60;;;;;;;-2.05;100.00;100864.06;5223352;28;20043;-79
2021/01/17 07:08:09;;;;;;;29.55;15.68;;;;;;;-2.20;100.00;100863.75;5221425;28;20131;-79
2021/01/17 07:10:41;;;;;;;28.75;15.10;;;;;;;-2.02;100.00;100873.50;5214969;28;20020;-79
2021/01/17 07:13:20;;;;;;;31.77;16.08;;;;;;;-1.99;100.00;100859.03;5222744;28;20434;-79
2021/01/17 07:15:53;;;;;;;31.15;16.65;;;;;;;-2.00;99.96;100870.13;5222557;28;20028;-79
2021/01/17 07:18:27;;;;;;;26.70;15.20;;;;;;;-2.06;100.00;100880.25;5222910;28;20052;-79
2021/01/17 07:21:02;;;;;;;30.05;15.57;;;;;;;-1.80;100.00;100879.03;5222706;28;20021;-78
2021/01/17 07:23:34;;;;;;;29.00;15.75;;;;;;;-1.79;99.40;100876.50;5223048;28;20082;-81
2021/01/17 07:26:08;;;;;;;30.98;15.60;;;;;;;-1.81;99.23;100878.19;5223039;28;20029;-79
2021/01/17 07:28:38;;;;;;;27.40;15.20;;;;;;;-1.67;100.00;100881.00;5223392;28;20041;-79
2021/01/17 07:31:17;;;;;;;28.90;14.95;;;;;;;-1.77;99.54;100889.34;5222937;28;20061;-79
2021/01/17 07:33:50;;;;;;;28.50;15.30;;;;;;;-1.68;99.32;100885.25;5222352;28;20025;-79
2021/01/17 07:36:24;;;;;;;24.60;14.60;;;;;;;-1.71;99.44;100889.47;5222802;28;20437;-79
2021/01/17 07:38:55;;;;;;;26.23;14.23;;;;;;;-1.81;100.00;100897.78;5221146;28;20451;-79
2021/01/17 07:41:36;;;;;;;25.55;13.65;;;;;;;-1.83;99.34;100904.59;5222566;28;20150;-78
2021/01/17 07:44:14;;;;;;;25.65;14.45;;;;;;;-1.83;99.92;100900.34;5221262;28;20032;-78
2021/01/17 07:46:45;;;;;;;24.17;13.85;;;;;;;-1.71;99.85;100895.44;5223577;28;20479;-79
2021/01/17 07:49:16;;;;;;;27.45;14.05;;;;;;;-1.54;99.67;100896.59;5220464;28;20403;-79
2021/01/17 07:51:46;;;;;;;24.23;14.00;;;;;;;-1.58;99.43;100901.66;5221510;28;20024;-79
2021/01/17 07:54:22;;;;;;;25.10;13.38;;;;;;;-1.24;98.01;100909.09;5221525;28;20036;-79
2021/01/17 07:56:53;;;;;;;22.10;13.35;;;;;;;-1.11;96.84;100903.31;5222306;28;20028;-79
2021/01/17 07:59:25;;;;;;;21.52;12.80;;;;;;;-1.03;95.98;100914.56;5222248;28;20021;-79
2021/01/17 08:01:56;;;;;;;22.02;12.57;;;;;;;-0.99;95.65;100906.06;5222303;28;20284;-79
2021/01/17 08:04:28;;;;;;;25.33;13.25;;;;;;;-1.03;95.50;100915.41;5219884;28;20104;-79
2021/01/17 08:06:59;;;;;;;21.52;12.63;;;;;;;-1.11;95.53;100911.88;5222263;28;20410;-79
2021/01/17 08:09:47;;;;;;;22.45;12.60;;;;;;;-1.14;96.39;100909.25;5203071;28;20025;-79
2021/01/17 08:12:35;;;;;;;21.88;11.95;;;;;;;-1.16;96.15;100920.31;5220996;28;20566;-79
2021/01/17 08:15:11;;;;;;;22.98;12.27;;;;;;;-1.12;95.84;100915.28;5220550;28;20129;-79
2021/01/17 08:17:42;;;;;;;;;;;;;;;-0.96;95.71;100914.69;5222225;28;20022;-79
2021/01/17 08:20:25;;;;;;;20.85;11.57;;;;;;;-0.94;95.36;100914.69;5221650;28;19915;-79
2021/01/17 08:23:03;;;;;;;23.30;12.52;;;;;;;-0.71;94.40;100923.63;5221656;28;20021;-79
2021/01/17 08:25:51;;;;;;;20.92;12.23;;;;;;;-0.39;92.58;100930.06;5221217;28;20037;-80
2021/01/17 08:28:34;;;;;;;21.85;12.48;;;;;;;-0.54;91.95;100923.00;5222315;28;20028;-79
2021/01/17 08:31:38;;;;;;;22.55;12.80;;;;;;;-0.59;92.74;100921.25;5225809;28;20021;-79
2021/01/17 08:34:11;;;;;;;22.95;12.90;;;;;;;-0.85;93.15;100931.13;5226805;28;20123;-79
2021/01/17 08:36:43;;;;;;;23.48;13.52;;;;;;;-0.84;93.30;100927.72;5226174;28;20402;-79
2021/01/17 08:39:13;;;;;;;22.85;12.90;;;;;;;-0.99;93.91;100931.72;5225613;28;20071;-79
2021/01/17 08:41:44;;;;;;;21.80;13.38;;;;;;;-1.04;94.57;100936.75;5224325;28;20025;-79
2021/01/17 08:44:15;;;;;;;24.05;13.73;;;;;;;-0.94;95.20;100935.22;5225679;28;20078;-80
2021/01/17 08:46:45;;;;;;;22.65;13.32;;;;;;;-0.91;94.60;100935.28;5225134;28;20393;-79
2021/01/17 08:49:16;;;;;;;25.48;13.43;;;;;;;-0.93;95.11;100937.81;5225719;28;20036;-80
2021/01/17 08:52:00;;;;;;;23.65;13.75;;;;;;;-0.90;94.59;100942.13;5227484;28;20035;-79
2021/01/17 08:54:30;;;;;;;26.05;14.20;;;;;;;-0.87;94.09;100943.03;5226145;28;20032;-79
2021/01/17 08:57:01;;;;;;;28.20;14.48;;;;;;;-0.76;94.19;100946.63;5225250;28;20029;-79
2021/01/17 08:59:34;;;;;;;22.20;13.35;;;;;;;-0.61;94.30;100951.13;5225823;28;20052;-80
2021/01/17 09:02:05;;;;;;;24.92;14.57;;;;;;;-0.35;94.00;100954.94;5225062;28;20514;-80
2021/01/17 09:04:37;;;;;;;24.90;13.35;;;;;;;-0.41;93.31;100960.84;5224832;28;20068;-79
2021/01/17 09:07:28;;;;;;;26.40;13.48;;;;;;;-0.33;92.10;100961.84;5225012;28;20353;-79
2021/01/17 09:10:05;;;;;;;22.10;13.02;;;;;;;-0.05;92.52;100965.63;5224592;28;20514;-80
2021/01/17 09:12:36;;;;;;;21.33;12.88;;;;;;;-0.01;92.61;100968.22;5227154;28;20467;-80
2021/01/17 09:15:14;;;;;;;22.30;12.93;;;;;;;-0.16;91.99;100972.31;5225984;28;20491;-80
2021/01/17 09:17:59;;;;;;;23.52;13.52;;;;;;;-0.30;92.13;100973.81;5226169;28;20037;-80
2021/01/17 09:20:29;;;;;;;21.85;12.45;;;;;;;-0.24;92.60;100979.06;5218308;28;20112;-80
2021/01/17 09:23:01;;;;;;;23.25;14.00;;;;;;;-0.11;93.06;100975.81;5225847;28;20116;-80
2021/01/17 09:25:32;;;;;;;22.67;13.50;;;;;;;-0.21;91.69;100984.25;5208839;28;20563;-80
2021/01/17 09:28:02;;;;;;;24.20;13.82;;;;;;;-0.15;92.45;100992.00;5208541;28;20056;-80
2021/01/17 09:30:32;;;;;;;24.35;13.90;;;;;;;-0.22;91.96;100990.22;5226289;28;20631;-80
2021/01/17 09:33:03;;;;;;;25.73;14.20;;;;;;;-0.16;92.28;100992.84;5210131;28;20806;-81
2021/01/17 09:35:34;;;;;;;27.85;14.95;;;;;;;-0.04;93.32;100993.88;5229261;28;20104;-81
2021/01/17 09:38:05;;;;;;;26.27;14.32;;;;;;;-0.16;92.86;100991.16;5227564;28;20025;-81
2021/01/17 09:40:41;;;;;;;24.35;13.77;;;;;;;0.02;93.37;100997.41;5210189;28;20047;-81
2021/01/17 09:43:11;;;;;;;26.23;14.60;;;;;;;0.07;91.79;100998.31;5228685;28;20403;-81
2021/01/17 09:45:48;;;;;;;23.98;13.98;;;;;;;0.00;91.41;100996.53;5230059;28;20131;-81
2021/01/17 09:48:20;;;;;;;25.98;15.55;;;;;;;0.08;93.25;101001.75;5230234;28;20021;-81
2021/01/17 09:50:51;;;;;;;26.83;15.10;;;;;;;0.08;92.11;101007.75;5228411;28;20028;-81
2021/01/17 09:53:22;;;;;;;23.98;13.75;;;;;;;0.10;91.70;101013.78;5227833;28;20037;-81
2021/01/17 09:55:52;;;;;;;23.17;13.82;;;;;;;-0.03;91.92;101011.00;5226784;28;20024;-81
2021/01/17 09:58:23;;;;;;;26.52;14.95;;;;;;;-0.02;91.46;101013.63;5229343;28;20052;-81
2021/01/17 10:00:53;;;;;;;26.33;14.18;;;;;;;0.25;91.91;101016.53;5228761;28;20036;-81
2021/01/17 10:03:27;;;;;;;26.55;14.75;;;;;;;0.13;91.50;101018.97;5211257;28;20048;-81
2021/01/17 10:05:57;;;;;;;23.95;14.13;;;;;;;0.05;90.75;101014.56;5229188;28;20052;-81
2021/01/17 10:08:28;;;;;;;24.55;14.05;;;;;;;-0.09;90.58;101010.06;5208010;28;20055;-81
2021/01/17 10:10:59;;;;;;;27.25;13.80;;;;;;;-0.07;90.77;101021.25;5228242;28;20025;-81
2021/01/17 10:13:30;;;;;;;27.85;14.90;;;;;;;-0.06;91.95;101013.53;5211246;28;20530;-81
2021/01/17 10:16:00;;;;;;;25.02;14.15;;;;;;;0.00;91.94;101018.78;5210847;28;20037;-81
2021/01/17 10:18:30;;;;;;;23.05;13.25;;;;;;;-0.07;91.51;101022.09;5227893;28;20087;-81
2021/01/17 10:21:00;;;;;;;25.88;13.75;;;;;;;-0.10;90.33;101022.06;5228358;28;20131;-81
2021/01/17 10:23:32;;;;;;;27.92;14.07;;;;;;;0.05;91.10;101015.41;5228572;28;20148;-81
2021/01/17 10:26:02;;;;;;;24.60;13.95;;;;;;;0.00;91.27;101022.19;5229167;28;20020;-81
2021/01/17 10:28:33;;;;;;;27.10;15.05;;;;;;;-0.04;90.79;101018.72;5228762;28;20017;-81
2021/01/17 10:31:03;;;;;;;24.10;13.45;;;;;;;0.12;90.63;101024.06;5209339;28;20048;-82
2021/01/17 10:33:33;;;;;;;24.75;14.15;;;;;;;0.00;91.16;101017.06;5210923;28;20028;-82
2021/01/17 10:36:04;;;;;;;25.30;14.10;;;;;;;0.11;90.63;101018.09;5232644;28;20028;-82
2021/01/17 10:38:35;;;;;;;24.27;13.70;;;;;;;0.09;90.72;101016.31;5228327;28;20041;-81
2021/01/17 10:41:05;;;;;;;25.52;14.43;;;;;;;-0.13;90.61;101024.59;5228241;28;20035;-81
2021/01/17 10:43:36;;;;;;;24.60;14.07;;;;;;;0.19;90.54;101019.03;5227761;28;20027;-83
2021/01/17 10:46:15;;;;;;;27.25;14.55;;;;;;;0.30;89.88;101017.47;5230197;28;20506;-82
2021/01/17 10:49:08;;;;;;;22.70;13.65;;;;;;;0.36;89.69;101017.53;5230038;28;20021;-82
2021/01/17 10:51:52;;;;;;;26.30;14.15;;;;;;;0.37;89.53;101010.72;5213022;28;20032;-82
2021/01/17 10:54:31;;;;;;;27.95;13.95;;;;;;;0.41;90.09;101021.00;5230292;28;20036;-82
2021/01/17 10:57:03;;;;;;;24.75;13.88;;;;;;;0.34;89.04;101014.09;5230426;28;20054;-82
2021/01/17 10:59:35;;;;;;;27.02;14.52;;;;;;;0.45;88.62;101017.66;5230371;28;20063;-82
2021/01/17 11:02:06;;;;;;;20.83;12.60;;;;;;;0.51;87.85;101004.88;5229513;28;20045;-82
2021/01/17 11:04:40;;;;;;;23.58;12.60;;;;;;;0.70;86.45;101011.09;5211292;28;20096;-82
2021/01/17 11:07:11;;;;;;;22.80;13.57;;;;;;;0.72;86.60;101020.53;5229195;28;20087;-82
2021/01/17 11:09:42;;;;;;;21.85;13.20;;;;;;;0.40;87.05;101016.72;5230012;28;20025;-82
2021/01/17 11:12:12;;;;;;;22.63;12.75;;;;;;;0.75;86.41;101007.69;5228798;28;20084;-83
2021/01/17 11:14:43;;;;;;;26.38;13.63;;;;;;;0.60;86.32;101015.28;5229300;28;20025;-83
2021/01/17 11:17:19;;;;;;;21.27;12.60;;;;;;;0.72;85.98;101020.53;5229097;28;20073;-83
2021/01/17 11:19:51;;;;;;;21.90;12.90;;;;;;;0.92;86.57;101016.44;5231816;28;20029;-83
2021/01/17 11:22:24;;;;;;;23.23;12.98;;;;;;;0.90;87.08;101012.16;5229726;28;20028;-82
2021/01/17 11:24:54;;;;;;;23.38;12.95;;;;;;;0.87;87.86;101017.28;5228475;28;20040;-84
2021/01/17 11:27:35;;;;;;;22.15;13.40;;;;;;;0.79;87.98;101014.63;5229764;28;20476;-82
2021/01/17 11:30:06;;;;;;;22.90;13.15;;;;;;;0.83;86.88;101002.63;5229799;28;20032;-84
2021/01/17 11:32:36;;;;;;;23.00;12.93;;;;;;;0.64;85.02;101004.16;5211805;28;20033;-82
2021/01/17 11:35:29;;;;;;;23.23;13.05;;;;;;;0.67;85.70;101008.47;5210753;28;20639;-82